createdAt,value
2022-11-30T00:01:56.438Z,38.2
2022-11-30T00:04:58.271Z,49.8
2022-11-30T00:08:00.256Z,40.8
2022-11-30T00:11:02.180Z,36.1
2022-11-30T00:14:04.189Z,41.4
2022-11-30T00:17:06.202Z,45.9
2022-11-30T00:20:08.120Z,38
2022-11-30T00:23:10.041Z,32.8
2022-11-30T00:26:12.003Z,45.9
2022-11-30T00:29:13.952Z,32.6
2022-11-30T00:32:15.925Z,39.7
2022-11-30T00:35:17.895Z,37.1
2022-11-30T00:38:19.874Z,34.2
2022-11-30T00:41:21.861Z,37.1
2022-11-30T00:44:23.779Z,40.3
2022-11-30T00:47:25.753Z,35.5
2022-11-30T00:50:27.706Z,44.4
2022-11-30T00:53:29.670Z,43.4
2022-11-30T00:56:31.630Z,42.9
2022-11-30T00:59:33.633Z,40.4
2022-11-30T01:02:35.701Z,43
2022-11-30T01:05:37.542Z,46.3
2022-11-30T01:08:39.541Z,47.9
2022-11-30T01:11:41.464Z,38.4
2022-11-30T01:14:43.485Z,44.4
2022-11-30T01:17:45.424Z,48.6
2022-11-30T01:20:47.351Z,42.2
2022-11-30T01:23:49.304Z,48.9
2022-11-30T01:26:51.278Z,40.2
2022-11-30T01:29:53.249Z,55.3
2022-11-30T01:32:55.244Z,52
2022-11-30T01:35:57.179Z,44
2022-11-30T01:38:59.146Z,48.5
2022-11-30T01:42:04.156Z,44.1
2022-11-30T01:45:06.147Z,43.8
2022-11-30T01:48:08.082Z,47
2022-11-30T01:51:10.082Z,46.1
2022-11-30T01:54:12.014Z,47.6
2022-11-30T01:57:13.977Z,46.8
2022-11-30T02:00:15.935Z,49
2022-11-30T02:03:17.938Z,45.9
2022-11-30T02:06:19.897Z,51.2
2022-11-30T02:09:21.843Z,42.2
2022-11-30T02:12:23.803Z,49.5
2022-11-30T02:15:25.837Z,53.1
2022-11-30T02:18:27.747Z,42.8
2022-11-30T02:21:29.714Z,45.3
2022-11-30T02:24:31.671Z,55.1
2022-11-30T02:27:33.641Z,52.1
2022-11-30T02:30:35.641Z,51.3
2022-11-30T02:33:37.605Z,55.9
2022-11-30T02:36:39.535Z,51.1
2022-11-30T02:39:41.533Z,51.9
2022-11-30T02:42:43.507Z,53.4
2022-11-30T02:45:45.478Z,50.4
2022-11-30T02:48:47.395Z,64.1
2022-11-30T02:51:49.351Z,60.4
2022-11-30T02:54:51.318Z,53.6
2022-11-30T02:57:53.297Z,57.4
2022-11-30T03:00:55.269Z,51.9
2022-11-30T03:03:57.281Z,47.8
2022-11-30T03:06:59.242Z,52.3
2022-11-30T03:10:01.212Z,51.1
2022-11-30T03:13:03.167Z,45.2
2022-11-30T03:16:05.314Z,60.1
2022-11-30T03:19:07.127Z,58.3
2022-11-30T03:22:09.071Z,59.7
2022-11-30T03:25:11.025Z,61.4
2022-11-30T03:28:12.981Z,59.2
2022-11-30T03:31:14.970Z,58.8
2022-11-30T03:34:16.914Z,47.9
2022-11-30T03:37:18.894Z,51
2022-11-30T03:40:20.932Z,50.6
2022-11-30T03:43:22.809Z,55.1
2022-11-30T03:46:24.902Z,59.2
2022-11-30T03:49:26.738Z,65.2
2022-11-30T03:52:28.701Z,52
2022-11-30T03:55:30.683Z,51.7
2022-11-30T03:58:32.657Z,46.9
2022-11-30T04:01:34.633Z,57.1
2022-11-30T04:04:36.588Z,59.8
2022-11-30T04:07:38.643Z,61.1
2022-11-30T04:10:40.554Z,57.5
2022-11-30T04:13:42.516Z,61.2
2022-11-30T04:16:44.427Z,63.5
2022-11-30T04:19:46.389Z,59
2022-11-30T04:22:48.354Z,59.4
2022-11-30T04:25:50.321Z,59.2
2022-11-30T04:28:52.296Z,47.6
2022-11-30T04:31:54.305Z,47.4
2022-11-30T04:34:56.270Z,58.6
2022-11-30T04:37:58.200Z,51.2
2022-11-30T04:41:00.163Z,61.4
2022-11-30T04:44:02.127Z,56
2022-11-30T04:47:04.104Z,40.6
2022-11-30T04:50:06.058Z,39.2
2022-11-30T04:53:08.070Z,50.3
2022-11-30T04:56:10.032Z,43.7
2022-11-30T04:59:11.986Z,40.5
2022-11-30T05:02:13.932Z,39.7
2022-11-30T05:05:15.893Z,43.7
2022-11-30T05:08:17.855Z,38.4
2022-11-30T05:11:19.865Z,39.4
2022-11-30T05:14:21.822Z,38.9
2022-11-30T05:17:23.792Z,40.7
2022-11-30T05:20:25.738Z,42.3
2022-11-30T05:23:27.702Z,39.1
2022-11-30T05:26:29.666Z,43.6
2022-11-30T05:29:31.632Z,42.5
2022-11-30T05:32:33.628Z,39.8
2022-11-30T05:35:35.558Z,40.3
2022-11-30T05:38:37.531Z,40.6
2022-11-30T05:41:39.518Z,47.1
2022-11-30T05:44:41.454Z,38.3
2022-11-30T05:47:43.419Z,46.7
2022-11-30T05:50:45.386Z,42.3
2022-11-30T05:53:47.358Z,42.1
2022-11-30T05:56:54.355Z,41.4
2022-11-30T05:59:51.309Z,57.1
2022-11-30T06:02:53.342Z,49.3
2022-11-30T06:05:55.236Z,46
2022-11-30T06:08:57.155Z,44.3
2022-11-30T06:11:59.130Z,42.8
2022-11-30T06:15:01.087Z,46
2022-11-30T06:18:03.043Z,43.2
2022-11-30T06:21:05.002Z,46.1
2022-11-30T06:24:06.962Z,52.3
2022-11-30T06:27:08.966Z,46.3
2022-11-30T06:30:10.916Z,41.6
2022-11-30T06:33:12.842Z,55.8
2022-11-30T06:36:14.864Z,48.4
2022-11-30T06:39:23.366Z,49
2022-11-30T06:42:18.787Z,47.3
2022-11-30T06:45:20.984Z,51.4
2022-11-30T06:48:22.705Z,49.2
2022-11-30T06:51:24.678Z,54.1
2022-11-30T06:54:26.646Z,50.7
2022-11-30T06:57:28.598Z,50.6
2022-11-30T07:00:30.566Z,50.3
2022-11-30T07:03:32.551Z,47.4
2022-11-30T07:06:34.474Z,48.7
2022-11-30T07:09:36.459Z,59.1
2022-11-30T07:12:38.423Z,53
2022-11-30T07:15:40.429Z,60.9
2022-11-30T07:18:42.354Z,57.1
2022-11-30T07:21:44.310Z,49.6
2022-11-30T07:24:46.564Z,49
2022-11-30T07:27:48.254Z,51.1
2022-11-30T07:30:50.251Z,47.7
2022-11-30T07:33:52.184Z,42.1
2022-11-30T07:36:54.142Z,40
2022-11-30T07:39:56.111Z,45
2022-11-30T07:42:58.069Z,38.2
2022-11-30T07:46:00.414Z,36.5
2022-11-30T07:49:02.027Z,46
2022-11-30T07:52:03.949Z,37.7
2022-11-30T07:55:05.928Z,42.5
2022-11-30T07:58:08.613Z,41.3
2022-11-30T08:01:09.942Z,31.6
2022-11-30T08:04:11.903Z,37.8
2022-11-30T08:07:13.819Z,29.3
2022-11-30T08:10:15.747Z,31.7
2022-11-30T08:13:17.760Z,26.6
2022-11-30T08:16:19.723Z,30.4
2022-11-30T08:19:21.642Z,33
2022-11-30T08:22:23.603Z,25.6
2022-11-30T08:25:25.596Z,33.6
2022-11-30T08:28:27.547Z,26.6
2022-11-30T08:31:29.556Z,23.4
2022-11-30T08:34:31.739Z,23.1
2022-11-30T08:37:33.452Z,22.1
2022-11-30T08:40:35.412Z,21.2
2022-11-30T08:43:37.372Z,22.4
2022-11-30T08:46:52.055Z,23.2
2022-11-30T08:49:41.342Z,27.4
2022-11-30T08:52:43.273Z,29.8
2022-11-30T08:55:45.239Z,28.2
2022-11-30T08:58:47.216Z,29.2
2022-11-30T09:01:49.179Z,29.9
2022-11-30T09:04:51.439Z,36.1
2022-11-30T09:07:53.252Z,31.3
2022-11-30T09:10:55.081Z,35.3
2022-11-30T09:13:57.068Z,49.5
2022-11-30T09:16:59.018Z,46.1
2022-11-30T09:20:01.000Z,43
2022-11-30T09:23:02.971Z,56
2022-11-30T09:26:04.924Z,58.1
2022-11-30T09:29:06.894Z,53.5
2022-11-30T09:32:08.855Z,49.4
2022-11-30T09:35:12.895Z,53.5
2022-11-30T09:38:12.770Z,47.8
2022-11-30T09:41:14.800Z,50.2
2022-11-30T09:44:16.712Z,51.4
2022-11-30T09:47:18.673Z,52.3
2022-11-30T09:50:20.645Z,49.5
2022-11-30T09:53:27.766Z,65
2022-11-30T09:56:24.548Z,54.1
2022-11-30T09:59:26.531Z,49.9
2022-11-30T10:02:28.669Z,53.4
2022-11-30T10:05:30.455Z,48.5
2022-11-30T10:08:32.433Z,62
2022-11-30T10:11:34.399Z,63.4
2022-11-30T10:14:36.361Z,51.5
2022-11-30T10:17:38.314Z,51.1
2022-11-30T10:20:40.283Z,51.4
2022-11-30T10:23:42.256Z,54.9
2022-11-30T10:26:44.261Z,45.7
2022-11-30T10:29:46.239Z,56.5
2022-11-30T10:32:48.161Z,45
2022-11-30T10:35:50.156Z,53.9
2022-11-30T10:38:52.093Z,48.3
2022-11-30T10:41:54.067Z,51.1
2022-11-30T10:44:56.007Z,45.1
2022-11-30T10:47:57.993Z,47.2
2022-11-30T10:50:59.980Z,39.6
2022-11-30T10:54:01.982Z,45
2022-11-30T10:57:03.910Z,37
2022-11-30T11:00:05.857Z,35.2
2022-11-30T11:03:07.869Z,35.3
2022-11-30T11:06:09.766Z,33.9
2022-11-30T11:09:11.743Z,29.8
2022-11-30T11:12:13.778Z,31.5
2022-11-30T11:15:15.698Z,29.6
2022-11-30T11:18:17.646Z,26.1
2022-11-30T11:21:19.641Z,29.3
2022-11-30T11:24:21.562Z,25.5
2022-11-30T11:27:23.536Z,25.7
2022-11-30T11:30:25.498Z,39.4
2022-11-30T11:33:27.576Z,28.6
2022-11-30T11:36:29.421Z,30.7
2022-11-30T11:39:31.369Z,34.3
2022-11-30T11:42:33.338Z,31.2
2022-11-30T11:45:35.319Z,34.8
2022-11-30T11:48:37.274Z,36.1
2022-11-30T11:51:39.230Z,35.7
2022-11-30T11:54:41.185Z,41.1
2022-11-30T11:57:43.147Z,35.5
2022-11-30T12:00:45.150Z,43.3
2022-11-30T12:03:47.114Z,39.8
2022-11-30T12:06:49.036Z,45.7
2022-11-30T12:09:51.083Z,47.4
2022-11-30T12:12:54.922Z,52.2
2022-11-30T12:15:54.988Z,46.3
2022-11-30T12:18:56.905Z,48.4
2022-11-30T12:21:58.871Z,46
2022-11-30T12:25:05.602Z,41.9
2022-11-30T12:28:02.825Z,38.6
2022-11-30T12:31:04.824Z,45.1
2022-11-30T12:34:06.734Z,46.8
2022-11-30T12:37:08.738Z,42.5
2022-11-30T12:40:10.658Z,40.3
2022-11-30T12:43:12.628Z,53.5
2022-11-30T12:46:14.652Z,51
2022-11-30T12:49:16.598Z,44.9
2022-11-30T12:52:18.517Z,50
2022-11-30T12:55:20.484Z,47.8
2022-11-30T12:58:22.533Z,44.6
2022-11-30T13:01:24.480Z,46.2
2022-11-30T13:04:26.429Z,34
2022-11-30T13:07:28.424Z,48.2
2022-11-30T13:10:30.353Z,41.8
2022-11-30T13:13:32.300Z,50.8
2022-11-30T13:16:34.352Z,50.3
2022-11-30T13:19:36.222Z,42.6
2022-11-30T13:22:38.188Z,43.5
2022-11-30T13:26:06.650Z,41
2022-11-30T13:28:42.139Z,50.9
2022-11-30T13:31:44.189Z,46.6
2022-11-30T13:34:46.360Z,48.3
2022-11-30T13:37:48.059Z,38.9
2022-11-30T13:40:49.994Z,44.1
2022-11-30T13:43:51.952Z,47.4
2022-11-30T13:46:53.970Z,43.9
2022-11-30T13:49:55.894Z,44.3
2022-11-30T13:52:57.930Z,42.2
2022-11-30T13:55:59.817Z,42.3
2022-11-30T13:59:01.758Z,41.5
2022-11-30T14:02:03.936Z,36.3
2022-11-30T14:05:05.705Z,38.5
2022-11-30T14:08:07.750Z,40.6
2022-11-30T14:11:09.647Z,35.4
2022-11-30T14:14:11.613Z,40.4
2022-11-30T14:17:13.593Z,43.7
2022-11-30T14:20:15.541Z,37.3
2022-11-30T14:23:17.501Z,37
2022-11-30T14:26:19.459Z,33.1
2022-11-30T14:29:21.445Z,45
2022-11-30T14:32:23.413Z,39
2022-11-30T14:35:25.361Z,35.6
2022-11-30T14:38:27.311Z,28.9
2022-11-30T14:41:29.283Z,36.8
2022-11-30T14:44:31.244Z,34
2022-11-30T14:47:33.219Z,29
2022-11-30T14:50:35.253Z,38
2022-11-30T14:53:37.148Z,35.3
2022-11-30T14:56:39.097Z,34.6
2022-11-30T14:59:41.080Z,30.6
2022-11-30T15:02:43.070Z,27.6
2022-11-30T15:05:45.027Z,38.9
2022-11-30T15:08:47.023Z,36.5
2022-11-30T15:11:48.949Z,33.5
2022-11-30T15:14:50.929Z,25.8
2022-11-30T15:17:52.880Z,22.9
2022-11-30T15:20:54.853Z,22.3
2022-11-30T15:23:56.876Z,22.5
2022-11-30T15:26:58.837Z,21
2022-11-30T15:30:01.055Z,24.9
2022-11-30T15:33:02.751Z,23.1
2022-11-30T15:36:19.066Z,24.4
2022-11-30T15:39:06.760Z,23.9
2022-11-30T15:42:08.661Z,24.9
2022-11-30T15:45:10.615Z,21.9
2022-11-30T15:48:12.590Z,22.5
2022-11-30T15:51:14.596Z,26.6
2022-11-30T15:54:16.603Z,23.1
2022-11-30T15:57:18.541Z,20.7
2022-11-30T16:00:20.481Z,15.5
2022-11-30T16:03:22.439Z,15.1
2022-11-30T16:06:24.434Z,17.6
2022-11-30T16:09:26.362Z,12.2
2022-11-30T16:12:28.313Z,11.9
2022-11-30T16:15:30.277Z,14
2022-11-30T16:18:32.261Z,12.7
2022-11-30T16:21:34.214Z,13
2022-11-30T16:24:36.205Z,13.1
2022-11-30T16:27:38.154Z,14.1
2022-11-30T16:30:40.122Z,12.8
2022-11-30T16:33:42.084Z,12.4
2022-11-30T16:36:44.102Z,13.5
2022-11-30T16:39:46.337Z,20.2
2022-11-30T16:42:47.975Z,17.9
2022-11-30T16:45:50.050Z,17.5
2022-11-30T16:48:51.970Z,19.5
2022-11-30T16:51:53.911Z,21.9
2022-11-30T16:54:55.894Z,19.6
2022-11-30T16:57:57.851Z,24.7
2022-11-30T17:00:59.858Z,22.7
2022-11-30T17:04:01.782Z,22.4
2022-11-30T17:07:03.761Z,26.6
2022-11-30T17:10:05.733Z,24.4
2022-11-30T17:13:07.746Z,27.5
2022-11-30T17:16:09.709Z,22.7
2022-11-30T17:19:11.639Z,23.4
2022-11-30T17:22:13.586Z,30.6
2022-11-30T17:25:15.561Z,22.4
2022-11-30T17:28:17.590Z,24
2022-11-30T17:31:19.604Z,32.6
2022-11-30T17:34:21.471Z,32.6
2022-11-30T17:37:23.543Z,29.8
2022-11-30T17:40:25.403Z,28.3
2022-11-30T17:43:27.409Z,25.9
2022-11-30T17:46:29.369Z,32.3
2022-11-30T17:49:31.325Z,31.3
2022-11-30T17:52:33.260Z,28.9
2022-11-30T17:55:35.241Z,28.8
2022-11-30T17:58:41.550Z,33.3
2022-11-30T18:01:39.290Z,29
2022-11-30T18:04:41.120Z,32.2
2022-11-30T18:07:43.110Z,31.2
2022-11-30T18:10:45.066Z,24.3
2022-11-30T18:13:47.111Z,27.8
2022-11-30T18:16:49.057Z,35.8
2022-11-30T18:19:50.931Z,34.6
2022-11-30T18:22:52.900Z,32
2022-11-30T18:25:54.855Z,29
2022-11-30T18:28:56.841Z,32.5
2022-11-30T18:31:58.837Z,32.7
2022-11-30T18:35:00.802Z,32.6
2022-11-30T18:38:02.759Z,27.4
2022-11-30T18:41:04.728Z,28.9
2022-11-30T18:44:06.703Z,32.4
2022-11-30T18:47:08.663Z,33
2022-11-30T18:50:10.638Z,29.4
2022-11-30T18:53:16.651Z,32.9
2022-11-30T18:56:14.550Z,32
2022-11-30T18:59:16.543Z,33.5
2022-11-30T19:02:18.832Z,31.2
2022-11-30T19:05:20.462Z,35.4
2022-11-30T19:08:22.420Z,29.8
2022-11-30T19:11:24.384Z,29.3
2022-11-30T19:14:26.326Z,28.2
2022-11-30T19:17:28.335Z,32.1
2022-11-30T19:20:30.307Z,32.7
2022-11-30T19:23:32.249Z,32.6
2022-11-30T19:26:34.202Z,29.2
2022-11-30T19:29:36.167Z,29.9
2022-11-30T19:32:38.130Z,31.3
2022-11-30T19:35:40.089Z,28.6
2022-11-30T19:38:42.087Z,29.5
2022-11-30T19:41:44.026Z,35.2
2022-11-30T19:44:46.302Z,32.1
2022-11-30T19:47:47.966Z,29.8
2022-11-30T19:50:49.924Z,32.8
2022-11-30T19:53:51.901Z,28.2
2022-11-30T19:56:53.933Z,25.9
2022-11-30T19:59:55.868Z,25.6
2022-11-30T20:02:57.855Z,26.2
2022-11-30T20:05:59.807Z,23.3
2022-11-30T20:09:01.756Z,26.5
2022-11-30T20:12:03.707Z,29.8
2022-11-30T20:15:05.691Z,26.9
2022-11-30T20:18:07.638Z,24.2
2022-11-30T20:21:09.604Z,26.7
2022-11-30T20:24:11.586Z,27.2
2022-11-30T20:27:13.556Z,23.8
2022-11-30T20:30:15.555Z,29.9
2022-11-30T20:33:17.467Z,29.1
2022-11-30T20:36:19.441Z,23.5
2022-11-30T20:39:21.487Z,25.9
2022-11-30T20:42:23.614Z,31.9
2022-11-30T20:45:25.345Z,27.1
2022-11-30T20:48:27.306Z,26.9
2022-11-30T20:51:31.042Z,25.7
2022-11-30T20:54:31.219Z,21.8
2022-11-30T20:57:33.178Z,24.7
2022-11-30T21:00:35.142Z,19.8
2022-11-30T21:03:37.111Z,20.8
2022-11-30T21:06:39.073Z,24.7
2022-11-30T21:09:41.032Z,21.1
2022-11-30T21:12:43.022Z,18.6
2022-11-30T21:15:45.046Z,18.5
2022-11-30T21:18:47.000Z,21.9
2022-11-30T21:21:48.913Z,20.6
2022-11-30T21:24:50.874Z,21.4
2022-11-30T21:27:52.871Z,18.3
2022-11-30T21:30:54.960Z,15.6
2022-11-30T21:33:56.794Z,15.8
2022-11-30T21:36:58.737Z,17.5
2022-11-30T21:40:00.790Z,15.2
2022-11-30T21:43:02.700Z,19
2022-11-30T21:46:04.691Z,18.5
2022-11-30T21:49:06.605Z,18
2022-11-30T21:52:08.564Z,20.3
2022-11-30T21:55:10.515Z,16
2022-11-30T21:58:12.503Z,16.2
2022-11-30T22:01:14.466Z,15.9
2022-11-30T22:04:16.611Z,18.7
2022-11-30T22:07:18.560Z,20.9
2022-11-30T22:10:20.401Z,18.1
2022-11-30T22:13:22.457Z,16.4
2022-11-30T22:16:24.395Z,18.9
2022-11-30T22:19:26.259Z,18.5
2022-11-30T22:22:28.230Z,25
2022-11-30T22:25:30.226Z,25.4
2022-11-30T22:28:32.159Z,23.4
2022-11-30T22:31:34.198Z,22.9
2022-11-30T22:34:36.127Z,24.8
2022-11-30T22:37:38.075Z,26.5
2022-11-30T22:40:40.047Z,24.7
2022-11-30T22:43:42.012Z,27.8
2022-11-30T22:46:44.100Z,25.3
2022-11-30T22:49:46.324Z,29.4
2022-11-30T22:53:02.747Z,26.4
2022-11-30T22:55:49.955Z,29.8
2022-11-30T22:58:51.871Z,28.3
2022-11-30T23:01:53.808Z,25.4
2022-11-30T23:04:55.755Z,21.8
2022-11-30T23:07:57.768Z,23.9
2022-11-30T23:10:59.692Z,23.1
2022-11-30T23:14:01.678Z,23.1
2022-11-30T23:17:03.647Z,23.9
2022-11-30T23:20:05.613Z,25.8
2022-11-30T23:23:07.525Z,27.9
2022-11-30T23:26:09.498Z,28
2022-11-30T23:29:11.450Z,26.8
2022-11-30T23:32:13.481Z,27.1
2022-11-30T23:35:15.374Z,27.8
2022-11-30T23:38:17.367Z,32
2022-11-30T23:41:19.348Z,28.5
2022-11-30T23:44:21.266Z,27.2
2022-11-30T23:47:23.256Z,24.5
2022-11-30T23:50:25.231Z,29.4
2022-11-30T23:53:27.165Z,28.1
2022-11-30T23:56:29.144Z,28.3
2022-11-30T23:59:31.094Z,28.9
